Time;durP1;ratioP1;P1;durP2;ratioP2;P2;SDS_P1;SDS_P2;PMS_P1;PMS_P2;Temp;Humidity;BMP_temperature;BMP_pressure;BME280_temperature;BME280_humidity;BME280_pressure;Samples;Min_cycle;Max_cycle;Signal;HPM_P1;HPM_P2
2022/09/17 00:00:46;;;;;;;21.93;3.90;;;;;;;;;;5049295;28;20784;-63
2022/09/17 00:03:12;;;;;;;23.10;3.80;;;;;;;;;;5048733;28;20056;-63
2022/09/17 00:05:38;;;;;;;26.90;3.50;;;;;;;;;;5049761;28;20049;-63
2022/09/17 00:08:06;;;;;;;32.73;4.63;;;;;;;;;;5049440;28;20049;-63
2022/09/17 00:10:32;;;;;;;29.20;3.97;;;;;;;;;;5049199;28;20049;-63
2022/09/17 00:12:59;;;;;;;23.53;3.83;;;;;;;;;;5049607;28;20040;-63
2022/09/17 00:15:25;;;;;;;25.73;3.43;;;;;;;;;;5049645;28;20541;-63
2022/09/17 00:17:57;;;;;;;24.80;3.83;;;;;;;;;;5049048;28;20041;-63
2022/09/17 00:20:24;;;;;;;27.15;3.40;;;;;;;;;;5049749;28;20104;-63
2022/09/17 00:22:50;;;;;;;19.10;3.23;;;;;;;;;;5049413;28;20280;-63
2022/09/17 00:25:16;;;;;;;17.27;3.20;;;;;;;;;;5049369;28;20041;-63
2022/09/17 00:27:42;;;;;;;26.23;3.27;;;;;;;;;;5048973;28;20049;-63
2022/09/17 00:30:09;;;;;;;24.73;3.43;;;;;;;;;;5049321;28;20052;-63
2022/09/17 00:32:35;;;;;;;28.47;3.93;;;;;;;;;;5048939;28;20469;-63
2022/09/17 00:35:01;;;;;;;25.10;3.53;;;;;;;;;;5048649;28;20053;-64
2022/09/17 00:37:27;;;;;;;21.83;3.70;;;;;;;;;;5048525;28;20106;-63
2022/09/17 00:39:53;;;;;;;18.33;3.43;;;;;;;;;;5049127;28;20049;-63
2022/09/17 00:42:19;;;;;;;24.20;4.00;;;;;;;;;;5048958;28;20509;-64
2022/09/17 00:44:47;;;;;;;21.33;3.00;;;;;;;;;;5049333;28;20057;-64
2022/09/17 00:47:22;;;;;;;23.40;3.60;;;;;;;;;;5047327;28;20056;-63
2022/09/17 00:49:50;;;;;;;17.53;3.13;;;;;;;;;;5048543;28;20045;-63
2022/09/17 00:52:21;;;;;;;30.50;3.47;;;;;;;;;;5048888;28;20072;-64
2022/09/17 00:54:52;;;;;;;23.77;5.00;;;;;;;;;;5049073;28;20655;-63
2022/09/17 00:57:18;;;;;;;16.70;2.87;;;;;;;;;;5048238;28;20410;-63
2022/09/17 00:59:44;;;;;;;22.97;3.47;;;;;;;;;;5048996;28;20049;-63
2022/09/17 01:02:10;;;;;;;23.97;2.93;;;;;;;;;;5048947;28;20095;-63
2022/09/17 01:04:36;;;;;;;24.57;3.97;;;;;;;;;;5049023;28;20080;-63
2022/09/17 01:07:08;;;;;;;25.50;3.30;;;;;;;;;;5047967;28;20130;-63
2022/09/17 01:09:43;;;;;;;20.53;3.23;;;;;;;;;;5048351;28;20068;-63
2022/09/17 01:12:18;;;;;;;20.97;2.83;;;;;;;;;;5048525;28;20098;-63
2022/09/17 01:14:50;;;;;;;28.07;4.53;;;;;;;;;;5048572;28;20064;-63
2022/09/17 01:17:23;;;;;;;34.03;3.77;;;;;;;;;;5047824;28;20080;-63
2022/09/17 01:20:18;;;;;;;25.50;2.97;;;;;;;;;;5048031;28;20048;-63
2022/09/17 01:22:47;;;;;;;24.83;4.10;;;;;;;;;;5048438;28;20091;-64
2022/09/17 01:25:38;;;;;;;25.77;3.10;;;;;;;;;;5048439;28;20162;-63
2022/09/17 01:28:14;;;;;;;20.70;2.77;;;;;;;;;;5048235;28;20090;-63
2022/09/17 01:30:40;;;;;;;21.87;3.47;;;;;;;;;;5048354;28;20076;-63
2022/09/17 01:33:14;;;;;;;17.23;3.47;;;;;;;;;;5046968;28;20091;-63
2022/09/17 01:35:42;;;;;;;19.80;3.63;;;;;;;;;;5048173;28;20139;-63
2022/09/17 01:38:14;;;;;;;21.33;3.00;;;;;;;;;;5047887;28;20060;-63
2022/09/17 01:40:45;;;;;;;18.65;2.95;;;;;;;;;;5048249;28;20049;-63
2022/09/17 01:43:17;;;;;;;24.23;3.10;;;;;;;;;;5047926;28;20076;-63
2022/09/17 01:45:48;;;;;;;25.73;3.20;;;;;;;;;;5047936;28;20041;-63
2022/09/17 01:48:16;;;;;;;18.70;2.93;;;;;;;;;;5048073;28;20045;-63
2022/09/17 01:50:45;;;;;;;16.13;2.60;;;;;;;;;;5047707;28;20052;-63
2022/09/17 01:53:13;;;;;;;19.20;2.70;;;;;;;;;;5048020;28;20554;-63
2022/09/17 01:55:41;;;;;;;18.87;2.53;;;;;;;;;;5048172;28;20040;-63
2022/09/17 01:58:07;;;;;;;24.90;3.63;;;;;;;;;;5047833;28;20052;-63
2022/09/17 02:00:34;;;;;;;17.53;3.13;;;;;;;;;;5047481;28;20159;-63
2022/09/17 02:03:03;;;;;;;25.07;4.33;;;;;;;;;;5048499;28;20532;-63
2022/09/17 02:05:35;;;;;;;18.43;2.67;;;;;;;;;;5048371;28;20052;-63
2022/09/17 02:08:16;;;;;;;19.10;2.97;;;;;;;;;;5047874;28;20079;-63
2022/09/17 02:10:44;;;;;;;17.87;2.40;;;;;;;;;;5047453;28;20057;-63
2022/09/17 02:13:15;;;;;;;14.13;2.60;;;;;;;;;;5048135;28;20059;-63
2022/09/17 02:15:43;;;;;;;13.17;2.57;;;;;;;;;;5047621;28;20499;-63
2022/09/17 02:18:22;;;;;;;17.87;2.47;;;;;;;;;;5047322;28;20049;-63
2022/09/17 02:20:52;;;;;;;18.70;3.63;;;;;;;;;;5047311;28;20052;-63
2022/09/17 02:23:26;;;;;;;18.60;2.63;;;;;;;;;;5048015;28;20088;-63
2022/09/17 02:25:58;;;;;;;23.13;3.67;;;;;;;;;;5047589;28;20182;-63
2022/09/17 02:28:32;;;;;;;13.63;2.17;;;;;;;;;;5048033;28;20049;-63
2022/09/17 02:30:58;;;;;;;14.73;2.33;;;;;;;;;;5047121;28;20207;-63
2022/09/17 02:33:24;;;;;;;17.77;2.57;;;;;;;;;;5048070;28;20051;-63
2022/09/17 02:35:50;;;;;;;12.97;2.17;;;;;;;;;;5047366;28;20495;-63
2022/09/17 02:38:26;;;;;;;16.50;2.63;;;;;;;;;;5044130;28;20453;-63
2022/09/17 02:40:59;;;;;;;20.37;3.43;;;;;;;;;;5047543;28;20055;-63
2022/09/17 02:43:31;;;;;;;13.40;2.47;;;;;;;;;;5047407;28;20053;-63
2022/09/17 02:46:08;;;;;;;13.40;2.03;;;;;;;;;;5047253;28;20064;-63
2022/09/17 02:48:53;;;;;;;12.37;2.17;;;;;;;;;;5047507;28;20507;-63
2022/09/17 02:51:19;;;;;;;19.93;2.73;;;;;;;;;;5046158;28;20102;-63
2022/09/17 02:53:48;;;;;;;21.23;3.27;;;;;;;;;;5047787;28;20084;-63
2022/09/17 02:56:32;;;;;;;17.57;2.13;;;;;;;;;;5046900;28;20049;-63
2022/09/17 02:59:02;;;;;;;11.37;2.27;;;;;;;;;;5049873;28;20044;-63
2022/09/17 03:01:31;;;;;;;12.83;2.07;;;;;;;;;;5051059;28;20051;-63
2022/09/17 03:03:59;;;;;;;21.90;2.37;;;;;;;;;;5051048;28;20088;-63
2022/09/17 03:06:25;;;;;;;14.90;1.80;;;;;;;;;;5050886;28;20056;-63
2022/09/17 03:08:51;;;;;;;10.47;1.90;;;;;;;;;;5049219;28;20084;-63
2022/09/17 03:11:17;;;;;;;14.20;2.27;;;;;;;;;;5051216;28;20124;-63
2022/09/17 03:13:43;;;;;;;12.60;3.03;;;;;;;;;;5050964;28;20499;-63
2022/09/17 03:16:09;;;;;;;16.70;2.17;;;;;;;;;;5051138;28;20056;-63
2022/09/17 03:18:35;;;;;;;14.10;1.90;;;;;;;;;;5050634;28;20071;-63
2022/09/17 03:21:03;;;;;;;16.63;2.23;;;;;;;;;;5050950;28;20088;-63
2022/09/17 03:23:29;;;;;;;15.90;2.63;;;;;;;;;;5050830;28;20056;-63
2022/09/17 03:25:55;;;;;;;18.43;1.97;;;;;;;;;;5050248;28;20060;-63
2022/09/17 03:28:21;;;;;;;16.73;2.23;;;;;;;;;;5051156;28;20041;-63
2022/09/17 03:30:47;;;;;;;13.07;2.17;;;;;;;;;;5050512;28;20110;-63
2022/09/17 03:33:13;;;;;;;14.40;2.47;;;;;;;;;;5050394;28;20052;-63
2022/09/17 03:35:43;;;;;;;18.43;2.27;;;;;;;;;;5050523;28;20506;-63
2022/09/17 03:38:09;;;;;;;18.23;3.67;;;;;;;;;;5050030;28;20052;-63
2022/09/17 03:40:35;;;;;;;21.40;3.03;;;;;;;;;;5050396;28;20402;-63
2022/09/17 03:43:01;;;;;;;16.17;2.10;;;;;;;;;;5050472;28;20048;-63
2022/09/17 03:45:27;;;;;;;8.50;1.90;;;;;;;;;;5050541;28;20569;-63
2022/09/17 03:47:53;;;;;;;16.60;3.70;;;;;;;;;;5050110;28;20041;-63
2022/09/17 03:50:19;;;;;;;16.17;2.53;;;;;;;;;;5050152;28;20045;-63
2022/09/17 03:52:45;;;;;;;13.63;2.07;;;;;;;;;;5049432;28;20135;-63
2022/09/17 03:55:11;;;;;;;20.83;3.80;;;;;;;;;;5049957;28;20052;-63
2022/09/17 03:57:37;;;;;;;12.43;1.87;;;;;;;;;;5050755;28;20044;-63
2022/09/17 04:00:04;;;;;;;20.30;3.07;;;;;;;;;;5050601;28;20041;-63
2022/09/17 04:02:30;;;;;;;21.93;2.53;;;;;;;;;;5049942;28;20440;-63
2022/09/17 04:04:56;;;;;;;15.37;2.33;;;;;;;;;;5050055;28;20103;-63
2022/09/17 04:07:22;;;;;;;16.97;2.23;;;;;;;;;;5049848;28;20049;-63
2022/09/17 04:09:48;;;;;;;14.90;2.47;;;;;;;;;;5048557;28;20562;-63
2022/09/17 04:12:14;;;;;;;16.07;2.43;;;;;;;;;;5049981;28;20041;-63
2022/09/17 04:14:40;;;;;;;16.13;2.03;;;;;;;;;;5049603;28;20045;-63
2022/09/17 04:17:06;;;;;;;17.37;2.47;;;;;;;;;;5048403;28;20041;-63
2022/09/17 04:19:32;;;;;;;17.27;3.37;;;;;;;;;;5049781;28;20037;-63
2022/09/17 04:21:59;;;;;;;12.57;2.20;;;;;;;;;;5049612;28;20044;-63
2022/09/17 04:24:25;;;;;;;21.40;2.47;;;;;;;;;;5049545;28;20060;-63
2022/09/17 04:26:51;;;;;;;15.33;3.30;;;;;;;;;;5049464;28;20049;-63
2022/09/17 04:29:17;;;;;;;18.13;3.17;;;;;;;;;;5049717;28;20064;-63
2022/09/17 04:31:43;;;;;;;22.23;3.00;;;;;;;;;;5049337;28;20175;-63
2022/09/17 04:34:09;;;;;;;18.27;3.97;;;;;;;;;;5049050;28;20053;-63
2022/09/17 04:36:37;;;;;;;15.43;2.27;;;;;;;;;;5049382;28;20183;-62
2022/09/17 04:39:03;;;;;;;14.60;2.37;;;;;;;;;;5049176;28;20537;-63
2022/09/17 04:41:29;;;;;;;24.63;2.97;;;;;;;;;;5049116;28;20822;-63
2022/09/17 04:43:55;;;;;;;19.67;2.97;;;;;;;;;;5048678;28;20179;-63
2022/09/17 04:46:21;;;;;;;16.43;2.50;;;;;;;;;;5048909;28;20741;-63
2022/09/17 04:48:47;;;;;;;15.33;2.57;;;;;;;;;;5049075;28;20418;-63
2022/09/17 04:51:13;;;;;;;17.00;2.33;;;;;;;;;;5049024;28;20048;-63
2022/09/17 04:53:39;;;;;;;24.27;3.07;;;;;;;;;;5049165;28;20049;-63
2022/09/17 04:56:05;;;;;;;23.83;2.53;;;;;;;;;;5048706;28;20516;-63
2022/09/17 04:58:32;;;;;;;13.20;2.10;;;;;;;;;;5049124;28;20395;-63
2022/09/17 05:00:58;;;;;;;21.70;4.13;;;;;;;;;;5048980;28;20414;-63
2022/09/17 05:03:24;;;;;;;16.03;2.07;;;;;;;;;;5049116;28;20041;-63
2022/09/17 05:05:50;;;;;;;13.33;2.33;;;;;;;;;;5048499;28;20049;-63
2022/09/17 05:08:16;;;;;;;12.97;2.00;;;;;;;;;;5048412;28;20056;-63
2022/09/17 05:10:42;;;;;;;7.93;1.77;;;;;;;;;;5049129;28;20084;-63
2022/09/17 05:13:08;;;;;;;9.57;2.03;;;;;;;;;;5048449;28;20053;-63
2022/09/17 05:15:34;;;;;;;10.17;1.70;;;;;;;;;;5048786;28;20041;-64
2022/09/17 05:18:00;;;;;;;20.07;3.07;;;;;;;;;;5048257;28;20049;-63
2022/09/17 05:20:26;;;;;;;12.70;2.23;;;;;;;;;;5048248;28;20055;-63
2022/09/17 05:22:52;;;;;;;10.80;1.90;;;;;;;;;;5048267;28;20643;-63
2022/09/17 05:25:19;;;;;;;8.47;1.80;;;;;;;;;;5048632;28;20052;-64
2022/09/17 05:27:45;;;;;;;14.93;1.50;;;;;;;;;;5048375;28;20494;-63
2022/09/17 05:30:12;;;;;;;14.03;2.50;;;;;;;;;;5046406;28;20041;-63
2022/09/17 05:32:39;;;;;;;12.83;2.10;;;;;;;;;;5030216;28;20128;-63
2022/09/17 05:35:07;;;;;;;11.20;1.90;;;;;;;;;;5033878;28;20048;-63
2022/09/17 05:37:33;;;;;;;13.73;2.70;;;;;;;;;;5048574;28;20049;-63
2022/09/17 05:39:59;;;;;;;14.67;1.90;;;;;;;;;;5047952;28;20128;-63
2022/09/17 05:42:25;;;;;;;18.53;2.67;;;;;;;;;;5048084;28;20473;-63
2022/09/17 05:44:51;;;;;;;14.17;2.30;;;;;;;;;;5047608;28;20044;-63
2022/09/17 05:47:17;;;;;;;13.90;2.20;;;;;;;;;;5048112;28;20049;-63
2022/09/17 05:49:43;;;;;;;15.57;2.70;;;;;;;;;;5047048;28;20049;-63
2022/09/17 05:52:09;;;;;;;20.00;1.93;;;;;;;;;;5047327;28;20533;-63
2022/09/17 05:54:35;;;;;;;15.93;2.37;;;;;;;;;;5047905;28;20452;-63
2022/09/17 05:57:03;;;;;;;11.43;2.43;;;;;;;;;;5043420;28;20088;-63
2022/09/17 05:59:29;;;;;;;13.70;2.10;;;;;;;;;;5048062;28;20079;-63
2022/09/17 06:01:55;;;;;;;17.03;3.33;;;;;;;;;;5045194;28;20052;-63
2022/09/17 06:04:21;;;;;;;10.83;1.90;;;;;;;;;;5047955;28;20546;-63
2022/09/17 06:06:47;;;;;;;15.60;3.10;;;;;;;;;;5047855;28;20123;-63
2022/09/17 06:09:13;;;;;;;13.07;2.17;;;;;;;;;;5045985;28;20053;-63
2022/09/17 06:11:40;;;;;;;19.70;2.43;;;;;;;;;;5047203;28;20499;-63
2022/09/17 06:14:06;;;;;;;11.87;2.80;;;;;;;;;;5046022;28;20119;-63
2022/09/17 06:16:32;;;;;;;14.27;2.80;;;;;;;;;;5047605;28;20037;-63
2022/09/17 06:18:58;;;;;;;13.20;2.97;;;;;;;;;;5047184;28;20552;-63
2022/09/17 06:21:24;;;;;;;12.53;2.00;;;;;;;;;;5047918;28;20070;-63
2022/09/17 06:23:50;;;;;;;18.53;2.37;;;;;;;;;;5046913;28;20049;-63
2022/09/17 06:26:16;;;;;;;16.63;2.17;;;;;;;;;;5047147;28;20533;-63
2022/09/17 06:28:43;;;;;;;20.07;4.57;;;;;;;;;;5047117;28;20056;-63
2022/09/17 06:31:10;;;;;;;17.33;1.93;;;;;;;;;;5047292;28;20049;-63
2022/09/17 06:33:38;;;;;;;15.57;2.33;;;;;;;;;;5049351;28;20060;-63
2022/09/17 06:36:06;;;;;;;13.93;3.27;;;;;;;;;;5050890;28;20053;-63
2022/09/17 06:38:35;;;;;;;14.87;2.93;;;;;;;;;;5050972;28;20048;-63
2022/09/17 06:41:02;;;;;;;23.77;2.97;;;;;;;;;;5050546;28;20040;-64
2022/09/17 06:43:28;;;;;;;39.20;3.17;;;;;;;;;;5051145;28;20087;-64
2022/09/17 06:45:55;;;;;;;17.50;3.20;;;;;;;;;;5050996;28;20044;-64
2022/09/17 06:48:21;;;;;;;18.17;2.93;;;;;;;;;;5038771;28;20046;-64
2022/09/17 06:50:48;;;;;;;14.03;1.90;;;;;;;;;;5030441;28;20088;-63
2022/09/17 06:53:14;;;;;;;15.30;2.27;;;;;;;;;;5030970;28;20045;-63
2022/09/17 06:55:40;;;;;;;18.60;2.50;;;;;;;;;;5031204;28;20030;-63
2022/09/17 06:58:06;;;;;;;14.23;2.50;;;;;;;;;;5030800;28;20068;-63
2022/09/17 07:00:32;;;;;;;18.50;2.70;;;;;;;;;;5030565;28;20119;-63
2022/09/17 07:02:59;;;;;;;22.60;3.37;;;;;;;;;;5030764;28;20045;-63
2022/09/17 07:05:26;;;;;;;17.23;2.43;;;;;;;;;;5030895;28;20557;-63
2022/09/17 07:07:52;;;;;;;17.97;2.40;;;;;;;;;;5030414;28;20057;-64
2022/09/17 07:10:18;;;;;;;11.50;2.80;;;;;;;;;;5030644;28;20179;-63
2022/09/17 07:12:44;;;;;;;10.00;2.13;;;;;;;;;;5030634;28;20060;-64
2022/09/17 07:15:10;;;;;;;11.77;1.47;;;;;;;;;;5030175;28;20049;-64
2022/09/17 07:17:40;;;;;;;8.53;1.53;;;;;;;;;;5030617;28;20067;-63
2022/09/17 07:20:07;;;;;;;9.97;1.97;;;;;;;;;;5030260;28;20046;-63
2022/09/17 07:22:33;;;;;;;9.50;1.23;;;;;;;;;;5030495;28;20041;-63
2022/09/17 07:24:59;;;;;;;8.83;1.67;;;;;;;;;;5030594;28;20077;-64
2022/09/17 07:27:28;;;;;;;14.87;1.53;;;;;;;;;;5029913;28;20061;-63
2022/09/17 07:29:54;;;;;;;6.47;1.00;;;;;;;;;;5030257;28;20041;-63
2022/09/17 07:32:20;;;;;;;8.37;1.30;;;;;;;;;;5030356;28;20041;-63
2022/09/17 07:34:48;;;;;;;5.80;1.10;;;;;;;;;;5030395;28;20041;-64
2022/09/17 07:37:14;;;;;;;3.90;1.23;;;;;;;;;;5029870;28;20061;-64
2022/09/17 07:39:40;;;;;;;9.70;1.10;;;;;;;;;;5030220;28;20048;-64
2022/09/17 07:42:07;;;;;;;9.87;1.33;;;;;;;;;;5030105;28;20041;-64
2022/09/17 07:44:33;;;;;;;6.07;1.00;;;;;;;;;;5029915;28;20049;-64
2022/09/17 07:46:59;;;;;;;10.93;1.33;;;;;;;;;;5030006;28;20107;-64
2022/09/17 07:49:25;;;;;;;8.47;2.03;;;;;;;;;;5029614;28;20160;-64
2022/09/17 07:51:53;;;;;;;13.50;2.17;;;;;;;;;;5029685;28;20045;-65
2022/09/17 07:54:20;;;;;;;11.47;1.63;;;;;;;;;;5030026;28;20045;-65
2022/09/17 07:56:46;;;;;;;7.13;1.00;;;;;;;;;;5029887;28;20131;-64
2022/09/17 07:59:12;;;;;;;7.70;1.27;;;;;;;;;;5029499;28;20495;-64
2022/09/17 08:01:39;;;;;;;11.07;1.20;;;;;;;;;;5029207;28;20068;-64
2022/09/17 08:04:05;;;;;;;9.90;1.20;;;;;;;;;;5029891;28;20041;-64
2022/09/17 08:06:35;;;;;;;15.60;1.90;;;;;;;;;;5029968;28;20131;-64
2022/09/17 08:09:03;;;;;;;8.87;1.50;;;;;;;;;;5029426;28;20049;-64
2022/09/17 08:11:29;;;;;;;10.50;1.47;;;;;;;;;;5027998;28;20041;-64
2022/09/17 08:13:56;;;;;;;10.17;1.00;;;;;;;;;;5029401;28;20045;-64
2022/09/17 08:16:22;;;;;;;7.93;1.17;;;;;;;;;;5029253;28;20042;-64
2022/09/17 08:18:49;;;;;;;11.63;2.17;;;;;;;;;;5029251;28;20052;-64
2022/09/17 08:21:17;;;;;;;9.03;1.03;;;;;;;;;;5029717;28;20128;-64
2022/09/17 08:23:44;;;;;;;6.87;1.43;;;;;;;;;;5028309;28;20415;-64
2022/09/17 08:26:28;;;;;;;7.00;1.00;;;;;;;;;;5029103;28;20092;-64
2022/09/17 08:28:55;;;;;;;8.23;1.07;;;;;;;;;;5028787;28;20053;-64
2022/09/17 08:31:22;;;;;;;8.23;1.70;;;;;;;;;;5029235;28;20056;-64
2022/09/17 08:33:48;;;;;;;8.43;1.30;;;;;;;;;;5028871;28;20072;-64
2022/09/17 08:36:15;;;;;;;7.07;0.80;;;;;;;;;;5029486;28;20406;-64
2022/09/17 08:38:41;;;;;;;5.53;0.97;;;;;;;;;;5029224;28;20084;-64
2022/09/17 08:41:11;;;;;;;10.77;1.87;;;;;;;;;;5026918;28;20502;-64
2022/09/17 08:43:43;;;;;;;5.03;1.00;;;;;;;;;;5029054;28;20045;-64
2022/09/17 08:46:10;;;;;;;2.63;0.60;;;;;;;;;;5028397;28;20495;-64
2022/09/17 08:48:42;;;;;;;9.27;1.33;;;;;;;;;;5029128;28;20048;-64
2022/09/17 08:51:21;;;;;;;4.33;1.00;;;;;;;;;;5028724;28;20446;-64
2022/09/17 08:53:50;;;;;;;5.73;0.90;;;;;;;;;;5028030;28;20056;-64
2022/09/17 08:56:17;;;;;;;8.27;1.30;;;;;;;;;;5028142;28;20469;-64
2022/09/17 08:59:03;;;;;;;15.83;1.90;;;;;;;;;;5029009;28;20037;-66
2022/09/17 09:01:31;;;;;;;6.63;1.17;;;;;;;;;;5028608;28;20100;-64
2022/09/17 09:03:59;;;;;;;7.47;1.10;;;;;;;;;;5028656;28;20057;-64
2022/09/17 09:06:29;;;;;;;7.03;1.00;;;;;;;;;;5027147;28;20107;-63
2022/09/17 09:08:58;;;;;;;12.60;1.60;;;;;;;;;;5028417;28;20065;-64
2022/09/17 09:11:26;;;;;;;10.07;1.77;;;;;;;;;;5028568;28;20058;-64
2022/09/17 09:13:59;;;;;;;13.17;1.30;;;;;;;;;;5028451;28;20100;-65
2022/09/17 09:16:31;;;;;;;8.90;0.80;;;;;;;;;;5028324;28;20085;-64
2022/09/17 09:19:00;;;;;;;4.27;0.50;;;;;;;;;;5027918;28;20049;-63
2022/09/17 09:21:32;;;;;;;2.73;0.70;;;;;;;;;;5028114;28;20103;-64
2022/09/17 09:24:07;;;;;;;5.07;0.70;;;;;;;;;;5028450;28;20056;-64
2022/09/17 09:26:33;;;;;;;5.93;1.23;;;;;;;;;;5028237;28;20095;-63
2022/09/17 09:29:02;;;;;;;3.73;0.77;;;;;;;;;;5027770;28;20112;-63
2022/09/17 09:31:31;;;;;;;6.80;2.10;;;;;;;;;;5027889;28;20467;-64
2022/09/17 09:33:58;;;;;;;12.17;1.43;;;;;;;;;;5028295;28;20128;-63
2022/09/17 09:36:27;;;;;;;8.57;1.20;;;;;;;;;;5028199;28;20053;-64
2022/09/17 09:39:00;;;;;;;7.10;0.90;;;;;;;;;;5028153;28;20053;-64
2022/09/17 09:41:45;;;;;;;7.32;1.00;;;;;;;;;;5027900;28;20138;-63
2022/09/17 09:44:12;;;;;;;6.80;1.60;;;;;;;;;;5027761;28;20104;-63
2022/09/17 09:46:50;;;;;;;6.73;1.00;;;;;;;;;;5028001;28;20058;-64
2022/09/17 09:49:35;;;;;;;22.57;1.60;;;;;;;;;;5027978;28;20052;-64
2022/09/17 09:52:19;;;;;;;12.20;1.60;;;;;;;;;;5027641;28;20080;-64
2022/09/17 09:54:48;;;;;;;9.83;1.57;;;;;;;;;;5027748;28;20400;-64
2022/09/17 09:57:17;;;;;;;9.50;1.10;;;;;;;;;;5027624;28;20033;-64
2022/09/17 09:59:43;;;;;;;14.23;1.67;;;;;;;;;;5028064;28;20037;-63
2022/09/17 10:02:09;;;;;;;10.27;1.13;;;;;;;;;;5027973;28;20049;-63
2022/09/17 10:04:35;;;;;;;5.73;1.30;;;;;;;;;;5027359;28;20808;-63
2022/09/17 10:07:09;;;;;;;8.47;1.20;;;;;;;;;;5027534;28;20050;-63
2022/09/17 10:09:36;;;;;;;10.07;1.13;;;;;;;;;;5031186;28;20063;-64
2022/09/17 10:12:15;;;;;;;5.70;1.07;;;;;;;;;;5032012;28;20128;-63
2022/09/17 10:14:41;;;;;;;9.63;1.17;;;;;;;;;;5031280;28;20064;-63
2022/09/17 10:17:27;;;;;;;31.10;2.57;;;;;;;;;;5031534;28;20840;-64
2022/09/17 10:19:59;;;;;;;12.03;1.27;;;;;;;;;;5031717;28;20120;-64
2022/09/17 10:22:29;;;;;;;10.23;1.43;;;;;;;;;;5030904;28;20152;-63
2022/09/17 10:24:57;;;;;;;13.43;2.10;;;;;;;;;;5030557;28;20392;-65
2022/09/17 10:27:23;;;;;;;11.33;1.50;;;;;;;;;;5030160;28;20532;-66
2022/09/17 10:30:07;;;;;;;8.30;1.77;;;;;;;;;;5031533;28;20045;-63
2022/09/17 10:32:33;;;;;;;8.00;0.83;;;;;;;;;;5039859;28;20076;-64
2022/09/17 10:35:04;;;;;;;7.17;1.40;;;;;;;;;;5051694;28;20488;-63
2022/09/17 10:37:32;;;;;;;11.63;1.87;;;;;;;;;;5051374;28;20041;-63
2022/09/17 10:39:58;;;;;;;10.87;1.23;;;;;;;;;;5050933;28;20758;-63
2022/09/17 10:42:24;;;;;;;5.53;1.17;;;;;;;;;;5050398;28;20128;-64
2022/09/17 10:44:55;;;;;;;17.83;2.10;;;;;;;;;;5051751;28;20159;-65
2022/09/17 10:47:21;;;;;;;10.37;1.10;;;;;;;;;;5033702;28;20136;-65
2022/09/17 10:49:48;;;;;;;4.20;1.00;;;;;;;;;;5049702;28;20127;-64
2022/09/17 10:52:20;;;;;;;7.43;1.20;;;;;;;;;;5050694;28;20057;-64
2022/09/17 10:54:49;;;;;;;3.93;0.70;;;;;;;;;;5051148;28;20045;-65
2022/09/17 10:57:20;;;;;;;4.03;0.80;;;;;;;;;;5050734;28;20479;-65
2022/09/17 11:00:00;;;;;;;5.77;1.00;;;;;;;;;;5051144;28;20081;-65
2022/09/17 11:03:00;;;;;;;5.37;0.63;;;;;;;;;;5051205;28;20045;-65
2022/09/17 11:05:45;;;;;;;7.43;0.87;;;;;;;;;;5029639;28;20091;-65
2022/09/17 11:08:13;;;;;;;5.27;0.90;;;;;;;;;;5049510;28;20148;-64
2022/09/17 11:10:44;;;;;;;5.60;1.07;;;;;;;;;;5038798;28;20467;-65
2022/09/17 11:13:29;;;;;;;7.73;1.20;;;;;;;;;;5050383;28;20059;-65
2022/09/17 11:16:14;;;;;;;17.63;2.20;;;;;;;;;;5050962;28;20501;-64
2022/09/17 11:18:44;;;;;;;3.77;1.13;;;;;;;;;;5050519;28;20044;-64
2022/09/17 11:21:19;;;;;;;6.43;1.00;;;;;;;;;;5050946;28;20165;-64
2022/09/17 11:23:54;;;;;;;10.27;1.80;;;;;;;;;;5050629;28;20048;-64
2022/09/17 11:26:23;;;;;;;4.67;1.13;;;;;;;;;;5052002;28;20045;-63
2022/09/17 11:28:56;;;;;;;6.20;0.80;;;;;;;;;;5051933;28;20041;-63
2022/09/17 11:31:31;;;;;;;5.10;1.00;;;;;;;;;;5051518;28;20053;-63
2022/09/17 11:34:07;;;;;;;5.17;1.00;;;;;;;;;;5044026;28;20077;-63
2022/09/17 11:36:43;;;;;;;8.43;1.37;;;;;;;;;;5030285;28;20046;-63
2022/09/17 11:39:13;;;;;;;7.23;1.00;;;;;;;;;;5031879;28;20041;-63
2022/09/17 11:41:42;;;;;;;5.97;1.67;;;;;;;;;;5031535;28;20045;-63
2022/09/17 11:44:10;;;;;;;4.20;0.97;;;;;;;;;;5031686;28;20088;-63
2022/09/17 11:46:42;;;;;;;5.87;0.70;;;;;;;;;;5031442;28;20045;-63
2022/09/17 11:49:12;;;;;;;8.02;0.98;;;;;;;;;;5030999;28;20172;-63
2022/09/17 11:51:40;;;;;;;6.17;2.03;;;;;;;;;;5030876;28;20076;-63
2022/09/17 11:54:06;;;;;;;6.53;2.60;;;;;;;;;;5031204;28;20038;-63
2022/09/17 11:56:41;;;;;;;5.13;0.87;;;;;;;;;;5030479;28;20058;-62
2022/09/17 11:59:19;;;;;;;4.90;0.80;;;;;;;;;;5030498;28;20495;-62
2022/09/17 12:02:06;;;;;;;3.17;0.70;;;;;;;;;;5030599;28;20450;-62
2022/09/17 12:04:47;;;;;;;3.30;0.60;;;;;;;;;;5028763;28;20463;-62
2022/09/17 12:07:28;;;;;;;3.43;0.70;;;;;;;;;;5029011;28;20261;-62
2022/09/17 12:10:00;;;;;;;7.50;1.87;;;;;;;;;;5029859;28;20085;-62
2022/09/17 12:12:27;;;;;;;6.83;1.10;;;;;;;;;;5029676;28;20045;-61
2022/09/17 12:15:05;;;;;;;8.67;1.37;;;;;;;;;;5030152;28;20072;-61
2022/09/17 12:17:36;;;;;;;6.80;2.00;;;;;;;;;;5029906;28;20042;-61
2022/09/17 12:20:07;;;;;;;5.20;1.10;;;;;;;;;;5029445;28;20053;-61
2022/09/17 12:22:35;;;;;;;10.93;1.90;;;;;;;;;;5029693;28;20077;-61
2022/09/17 12:25:01;;;;;;;2.77;0.90;;;;;;;;;;5029098;28;20057;-60
2022/09/17 12:27:37;;;;;;;5.23;1.30;;;;;;;;;;5029953;28;20046;-61
2022/09/17 12:30:06;;;;;;;7.37;1.20;;;;;;;;;;5029048;28;20037;-61
2022/09/17 12:32:46;;;;;;;4.87;1.10;;;;;;;;;;5029478;28;20094;-61
2022/09/17 12:35:18;;;;;;;6.07;1.47;;;;;;;;;;5029611;28;20060;-60
2022/09/17 12:38:02;;;;;;;7.27;1.23;;;;;;;;;;5029753;28;20613;-60
2022/09/17 12:40:34;;;;;;;6.67;1.73;;;;;;;;;;5029982;28;20442;-60
2022/09/17 12:43:06;;;;;;;8.80;2.03;;;;;;;;;;5029095;28;20688;-60
2022/09/17 12:45:41;;;;;;;7.17;1.30;;;;;;;;;;5029420;28;20099;-60
2022/09/17 12:48:07;;;;;;;7.67;1.70;;;;;;;;;;5029501;28;20049;-60
2022/09/17 12:50:33;;;;;;;10.07;2.50;;;;;;;;;;5029691;28;20041;-60
2022/09/17 12:53:18;;;;;;;10.03;2.30;;;;;;;;;;5029093;28;20526;-60
2022/09/17 12:55:47;;;;;;;11.20;2.07;;;;;;;;;;5029752;28;20407;-60
2022/09/17 12:58:28;;;;;;;8.27;1.87;;;;;;;;;;5029402;28;20136;-60
2022/09/17 13:01:00;;;;;;;12.63;2.63;;;;;;;;;;5027593;28;20053;-60
2022/09/17 13:03:36;;;;;;;7.43;1.60;;;;;;;;;;5029411;28;20491;-59
2022/09/17 13:06:14;;;;;;;9.30;2.47;;;;;;;;;;5029254;28;20049;-60
2022/09/17 13:08:43;;;;;;;9.20;2.07;;;;;;;;;;5028773;28;20511;-59
2022/09/17 13:11:20;;;;;;;7.37;1.73;;;;;;;;;;5029152;28;20539;-59
2022/09/17 13:13:55;;;;;;;8.37;2.00;;;;;;;;;;5028589;28;20106;-60
2022/09/17 13:16:40;;;;;;;111.23;9.60;;;;;;;;;;5029051;28;20053;-62
2022/09/17 13:19:14;;;;;;;251.33;22.60;;;;;;;;;;5029111;28;20048;-63
2022/09/17 13:21:48;;;;;;;37.93;3.90;;;;;;;;;;5029091;28;20045;-63
2022/09/17 13:24:20;;;;;;;41.30;4.50;;;;;;;;;;5028776;28;20045;-63
2022/09/17 13:26:46;;;;;;;60.60;5.90;;;;;;;;;;5028355;28;20052;-63
2022/09/17 13:29:13;;;;;;;50.60;6.37;;;;;;;;;;5028720;28;20080;-62
2022/09/17 13:31:41;;;;;;;13.10;2.67;;;;;;;;;;5029072;28;20054;-62
2022/09/17 13:34:16;;;;;;;15.97;3.57;;;;;;;;;;5028859;28;20111;-61
2022/09/17 13:36:42;;;;;;;14.10;2.87;;;;;;;;;;5028730;28;20092;-61
2022/09/17 13:39:10;;;;;;;11.93;2.27;;;;;;;;;;5028857;28;20140;-61
2022/09/17 13:41:38;;;;;;;10.70;2.83;;;;;;;;;;5028236;28;20041;-61
2022/09/17 13:44:05;;;;;;;11.23;2.33;;;;;;;;;;5028776;28;20049;-61
2022/09/17 13:46:33;;;;;;;14.50;2.40;;;;;;;;;;5028360;28;20128;-60
2022/09/17 13:49:04;;;;;;;7.90;2.20;;;;;;;;;;5028185;28;20049;-61
2022/09/17 13:51:30;;;;;;;12.10;2.10;;;;;;;;;;5028652;28;20540;-60
2022/09/17 13:54:10;;;;;;;13.50;2.50;;;;;;;;;;5028449;28;20050;-60
2022/09/17 13:56:46;;;;;;;7.50;1.90;;;;;;;;;;5028157;28;20045;-60
2022/09/17 13:59:15;;;;;;;8.13;1.93;;;;;;;;;;5028343;28;20566;-60
2022/09/17 14:02:00;;;;;;;11.07;2.17;;;;;;;;;;5028391;28;20061;-60
2022/09/17 14:04:31;;;;;;;14.37;3.07;;;;;;;;;;5028534;28;20087;-60
2022/09/17 14:06:58;;;;;;;9.10;1.80;;;;;;;;;;5028647;28;20041;-60
2022/09/17 14:09:35;;;;;;;8.87;2.23;;;;;;;;;;5028097;28;20454;-59
2022/09/17 14:12:01;;;;;;;6.30;1.87;;;;;;;;;;5028453;28;20495;-59
2022/09/17 14:14:27;;;;;;;10.73;2.37;;;;;;;;;;5028401;28;20140;-60
2022/09/17 14:16:53;;;;;;;13.67;2.00;;;;;;;;;;5027820;28;20037;-59
2022/09/17 14:19:21;;;;;;;8.33;1.40;;;;;;;;;;5027989;28;20038;-59
2022/09/17 14:22:03;;;;;;;7.10;1.57;;;;;;;;;;5028587;28;20049;-59
2022/09/17 14:24:31;;;;;;;7.00;1.20;;;;;;;;;;5028258;28;20494;-60
2022/09/17 14:26:57;;;;;;;3.40;0.70;;;;;;;;;;5028265;28;20072;-60
2022/09/17 14:29:40;;;;;;;5.63;0.73;;;;;;;;;;5028768;28;20522;-60
2022/09/17 14:32:07;;;;;;;5.77;1.07;;;;;;;;;;5027710;28;20050;-60
2022/09/17 14:34:33;;;;;;;5.87;0.97;;;;;;;;;;5027882;28;20053;-60
2022/09/17 14:36:59;;;;;;;4.90;1.10;;;;;;;;;;5028237;28;20437;-60
2022/09/17 14:39:36;;;;;;;7.77;1.37;;;;;;;;;;5028331;28;20470;-59
2022/09/17 14:42:04;;;;;;;7.50;1.23;;;;;;;;;;5028333;28;20133;-60
2022/09/17 14:44:33;;;;;;;6.27;1.33;;;;;;;;;;5027405;28;20045;-59
2022/09/17 14:47:06;;;;;;;6.00;1.20;;;;;;;;;;5028008;28;20053;-59